VOI441 MMOX-MMMX
Flight info
| Callsign | VOI441 |
|---|---|
| Flight time | 0h 41m |
| Altitude | 32000 |
| Route | MAXIL UJ33 KODEK UT157 LARLO LARLO4A |
| Aircraft | A20N/M-SDE2E3FGHIRWXY/LB1 |
Departure
| Time | 2026-05-06 23:37 |
|---|---|
| Airport | Xoxocotlán International Airport (MMOX) |
Arrival
| Time | 2026-05-07 00:18 |
|---|---|
| Airport | Mexico City Benito Juárez International Airport (MMMX) |
| Time | Latitude | Longitude | Altitude | Speed | Heading |
|---|---|---|---|---|---|
| 2026-05-06 23:20 | 17.00137 | -96.72255 | 5017 ft | 0 kts | 106° |
| 2026-05-06 23:28 | 17.00139 | -96.72260 | 5018 ft | 2 kts | 106° |
| 2026-05-06 23:29 | 17.00143 | -96.72276 | 5018 ft | 2 kts | 105° |
| 2026-05-06 23:29 | 17.00148 | -96.72291 | 5018 ft | 2 kts | 131° |
| 2026-05-06 23:29 | 17.00161 | -96.72300 | 5018 ft | 2 kts | 161° |
| 2026-05-06 23:29 | 17.00175 | -96.72302 | 5018 ft | 1 kts | 190° |
| 2026-05-06 23:30 | 17.00181 | -96.72300 | 5018 ft | 1 kts | 198° |
| 2026-05-06 23:30 | 17.00184 | -96.72299 | 5018 ft | 0 kts | 196° |
| 2026-05-06 23:30 | 17.00183 | -96.72299 | 5018 ft | 0 kts | 196° |
| 2026-05-06 23:32 | 17.00154 | -96.72308 | 5018 ft | 6 kts | 194° |
| 2026-05-06 23:32 | 17.00093 | -96.72315 | 5017 ft | 10 kts | 179° |
| 2026-05-06 23:33 | 17.00019 | -96.72302 | 5015 ft | 10 kts | 163° |
| 2026-05-06 23:33 | 16.99957 | -96.72273 | 5015 ft | 8 kts | 155° |
| 2026-05-06 23:33 | 16.99898 | -96.72292 | 5014 ft | 11 kts | 225° |
| 2026-05-06 23:33 | 16.99834 | -96.72362 | 5013 ft | 15 kts | 227° |
| 2026-05-06 23:34 | 16.99750 | -96.72452 | 5012 ft | 19 kts | 224° |
| 2026-05-06 23:34 | 16.99655 | -96.72560 | 5011 ft | 21 kts | 227° |
| 2026-05-06 23:34 | 16.99551 | -96.72673 | 5009 ft | 20 kts | 218° |
| 2026-05-06 23:34 | 16.99416 | -96.72733 | 5007 ft | 21 kts | 194° |
| 2026-05-06 23:35 | 16.99269 | -96.72774 | 5005 ft | 22 kts | 194° |
| 2026-05-06 23:35 | 16.99119 | -96.72817 | 5004 ft | 21 kts | 196° |
| 2026-05-06 23:35 | 16.98980 | -96.72858 | 5002 ft | 19 kts | 189° |
| 2026-05-06 23:35 | 16.98860 | -96.72841 | 5001 ft | 13 kts | 172° |
| 2026-05-06 23:36 | 16.98807 | -96.72882 | 5001 ft | 8 kts | 277° |
| 2026-05-06 23:36 | 16.98847 | -96.72900 | 5001 ft | 6 kts | 17° |
| 2026-05-06 23:36 | 16.99031 | -96.72846 | 5003 ft | 65 kts | 16° |
| 2026-05-06 23:36 | 16.99717 | -96.72647 | 5011 ft | 137 kts | 16° |
| 2026-05-06 23:37 | 17.00832 | -96.72315 | 5161 ft | 180 kts | 17° |
| 2026-05-06 23:37 | 17.02045 | -96.71963 | 5798 ft | 184 kts | 14° |
| 2026-05-06 23:37 | 17.03305 | -96.71712 | 6540 ft | 188 kts | 7° |
| 2026-05-06 23:37 | 17.04555 | -96.71611 | 7185 ft | 178 kts | 355° |
| 2026-05-06 23:38 | 17.05761 | -96.72018 | 7433 ft | 187 kts | 326° |
| 2026-05-06 23:38 | 17.06849 | -96.72823 | 7691 ft | 199 kts | 321° |
| 2026-05-06 23:38 | 17.07992 | -96.73721 | 7953 ft | 212 kts | 321° |
| 2026-05-06 23:38 | 17.09066 | -96.74873 | 8183 ft | 227 kts | 302° |
| 2026-05-06 23:39 | 17.09829 | -96.76393 | 8382 ft | 248 kts | 294° |
| 2026-05-06 23:39 | 17.10569 | -96.78088 | 8716 ft | 264 kts | 294° |
| 2026-05-06 23:39 | 17.11334 | -96.79898 | 9043 ft | 282 kts | 292° |
| 2026-05-06 23:39 | 17.12057 | -96.81843 | 9512 ft | 292 kts | 291° |
| 2026-05-06 23:40 | 17.12816 | -96.83836 | 10168 ft | 295 kts | 297° |
| 2026-05-06 23:40 | 17.13929 | -96.85623 | 10729 ft | 302 kts | 312° |
| 2026-05-06 23:40 | 17.15543 | -96.87131 | 11053 ft | 317 kts | 328° |
| 2026-05-06 23:40 | 17.17547 | -96.88194 | 11385 ft | 331 kts | 339° |
| 2026-05-06 23:41 | 17.19685 | -96.89222 | 11902 ft | 339 kts | 331° |
| 2026-05-06 23:41 | 17.21637 | -96.90604 | 12569 ft | 342 kts | 326° |
| 2026-05-06 23:41 | 17.23582 | -96.92096 | 13235 ft | 346 kts | 325° |
| 2026-05-06 23:41 | 17.25498 | -96.93610 | 13836 ft | 349 kts | 324° |
| 2026-05-06 23:42 | 17.27460 | -96.95185 | 14426 ft | 354 kts | 324° |
| 2026-05-06 23:42 | 17.29418 | -96.96767 | 14986 ft | 360 kts | 324° |
| 2026-05-06 23:42 | 17.31405 | -96.98374 | 15544 ft | 365 kts | 324° |
| 2026-05-06 23:42 | 17.33490 | -96.99963 | 16097 ft | 370 kts | 327° |
| 2026-05-06 23:43 | 17.35604 | -97.01516 | 16641 ft | 375 kts | 327° |
| 2026-05-06 23:43 | 17.37770 | -97.03102 | 17151 ft | 381 kts | 327° |
| 2026-05-06 23:43 | 17.39953 | -97.04707 | 17585 ft | 389 kts | 327° |
| 2026-05-06 23:43 | 17.42195 | -97.06361 | 18130 ft | 394 kts | 326° |
| 2026-05-06 23:44 | 17.44426 | -97.08015 | 18695 ft | 397 kts | 326° |
| 2026-05-06 23:44 | 17.46705 | -97.09707 | 19272 ft | 399 kts | 326° |
| 2026-05-06 23:44 | 17.48974 | -97.11392 | 19833 ft | 402 kts | 326° |
| 2026-05-06 23:44 | 17.51276 | -97.13105 | 20387 ft | 405 kts | 326° |
| 2026-05-06 23:45 | 17.53571 | -97.14812 | 20936 ft | 407 kts | 326° |
| 2026-05-06 23:45 | 17.55899 | -97.16543 | 21478 ft | 409 kts | 326° |
| 2026-05-06 23:45 | 17.58207 | -97.18284 | 21990 ft | 413 kts | 324° |
| 2026-05-06 23:45 | 17.60469 | -97.20187 | 22496 ft | 416 kts | 320° |
| 2026-05-06 23:46 | 17.62633 | -97.22253 | 22993 ft | 420 kts | 317° |
| 2026-05-06 23:46 | 17.64731 | -97.24358 | 23500 ft | 423 kts | 317° |
| 2026-05-06 23:46 | 17.66868 | -97.26520 | 24015 ft | 425 kts | 317° |
| 2026-05-06 23:46 | 17.68983 | -97.28661 | 24508 ft | 427 kts | 316° |
| 2026-05-06 23:47 | 17.71134 | -97.30837 | 24982 ft | 429 kts | 316° |
| 2026-05-06 23:47 | 17.73299 | -97.33027 | 25448 ft | 432 kts | 316° |
| 2026-05-06 23:47 | 17.75482 | -97.35232 | 25912 ft | 433 kts | 316° |
| 2026-05-06 23:47 | 17.77646 | -97.37419 | 26360 ft | 435 kts | 316° |
| 2026-05-06 23:48 | 17.79821 | -97.39617 | 26774 ft | 438 kts | 316° |
| 2026-05-06 23:48 | 17.82037 | -97.41858 | 27171 ft | 440 kts | 316° |
| 2026-05-06 23:48 | 17.84255 | -97.44100 | 27676 ft | 439 kts | 316° |
| 2026-05-06 23:48 | 17.86434 | -97.46303 | 28219 ft | 437 kts | 316° |
| 2026-05-06 23:49 | 17.88630 | -97.48525 | 28774 ft | 435 kts | 315° |
| 2026-05-06 23:49 | 17.90807 | -97.50732 | 29343 ft | 433 kts | 315° |
| 2026-05-06 23:49 | 17.92977 | -97.52932 | 29915 ft | 431 kts | 315° |
| 2026-05-06 23:49 | 17.95116 | -97.55101 | 30468 ft | 430 kts | 315° |
| 2026-05-06 23:50 | 17.97274 | -97.57288 | 30986 ft | 429 kts | 315° |
| 2026-05-06 23:50 | 18.01574 | -97.61651 | 31816 ft | 432 kts | 316° |
| 2026-05-06 23:50 | 18.03747 | -97.63856 | 32191 ft | 433 kts | 316° |
| 2026-05-06 23:51 | 18.08113 | -97.68288 | 32260 ft | 435 kts | 315° |
| 2026-05-06 23:51 | 18.12480 | -97.72727 | 32250 ft | 435 kts | 315° |
| 2026-05-06 23:52 | 18.16829 | -97.77148 | 32234 ft | 434 kts | 315° |
| 2026-05-06 23:52 | 18.21160 | -97.81558 | 32226 ft | 433 kts | 315° |
| 2026-05-06 23:53 | 18.25493 | -97.85967 | 32215 ft | 433 kts | 315° |
| 2026-05-06 23:53 | 18.29853 | -97.90402 | 32220 ft | 434 kts | 315° |
| 2026-05-06 23:54 | 18.34190 | -97.94817 | 32228 ft | 435 kts | 315° |
| 2026-05-06 23:54 | 18.38535 | -97.99250 | 32243 ft | 434 kts | 315° |
| 2026-05-06 23:55 | 18.42879 | -98.03681 | 32259 ft | 433 kts | 315° |
| 2026-05-06 23:55 | 18.47210 | -98.08106 | 31962 ft | 433 kts | 315° |
| 2026-05-06 23:56 | 18.49376 | -98.10322 | 31701 ft | 430 kts | 315° |
| 2026-05-06 23:56 | 18.51528 | -98.12521 | 31441 ft | 428 kts | 315° |
| 2026-05-06 23:56 | 18.53647 | -98.14688 | 31158 ft | 425 kts | 315° |
| 2026-05-06 23:56 | 18.55779 | -98.16871 | 30771 ft | 425 kts | 315° |
| 2026-05-06 23:57 | 18.57911 | -98.19055 | 30253 ft | 425 kts | 315° |
| 2026-05-06 23:57 | 18.60013 | -98.21210 | 29639 ft | 426 kts | 315° |
| 2026-05-06 23:57 | 18.62147 | -98.23399 | 28990 ft | 427 kts | 315° |
| 2026-05-06 23:57 | 18.64288 | -98.25594 | 28326 ft | 428 kts | 315° |
| 2026-05-06 23:58 | 18.66415 | -98.27777 | 27655 ft | 430 kts | 315° |
| 2026-05-06 23:58 | 18.68570 | -98.29990 | 26956 ft | 432 kts | 314° |
| 2026-05-06 23:58 | 18.70475 | -98.32385 | 26460 ft | 427 kts | 302° |
| 2026-05-06 23:58 | 18.71836 | -98.35123 | 26234 ft | 417 kts | 291° |
| 2026-05-06 23:59 | 18.72664 | -98.38071 | 25553 ft | 420 kts | 281° |
| 2026-05-06 23:59 | 18.73220 | -98.41062 | 24915 ft | 421 kts | 280° |
| 2026-05-06 23:59 | 18.73754 | -98.44118 | 24315 ft | 421 kts | 280° |
| 2026-05-06 23:59 | 18.74281 | -98.47124 | 23725 ft | 421 kts | 280° |
| 2026-05-07 00:00 | 18.74822 | -98.50166 | 23119 ft | 420 kts | 280° |
| 2026-05-07 00:00 | 18.75367 | -98.53200 | 22527 ft | 419 kts | 280° |
| 2026-05-07 00:00 | 18.75908 | -98.56187 | 21947 ft | 418 kts | 280° |
| 2026-05-07 00:00 | 18.76455 | -98.59211 | 21365 ft | 417 kts | 280° |
| 2026-05-07 00:01 | 18.76994 | -98.62185 | 20803 ft | 415 kts | 281° |
| 2026-05-07 00:01 | 18.77540 | -98.65192 | 20238 ft | 413 kts | 280° |
| 2026-05-07 00:01 | 18.78077 | -98.68154 | 19660 ft | 412 kts | 281° |
| 2026-05-07 00:01 | 18.78616 | -98.71127 | 19080 ft | 410 kts | 281° |
| 2026-05-07 00:02 | 18.79146 | -98.74053 | 18550 ft | 407 kts | 281° |
| 2026-05-07 00:02 | 18.79676 | -98.76978 | 18122 ft | 401 kts | 281° |
| 2026-05-07 00:02 | 18.80191 | -98.79829 | 17703 ft | 395 kts | 281° |
| 2026-05-07 00:02 | 18.80720 | -98.82660 | 17331 ft | 385 kts | 283° |
| 2026-05-07 00:03 | 18.81285 | -98.85350 | 17111 ft | 360 kts | 283° |
| 2026-05-07 00:03 | 18.81817 | -98.87798 | 17089 ft | 331 kts | 284° |
| 2026-05-07 00:03 | 18.82319 | -98.90125 | 17077 ft | 317 kts | 284° |
| 2026-05-07 00:03 | 18.82800 | -98.92370 | 17069 ft | 314 kts | 284° |
| 2026-05-07 00:04 | 18.83284 | -98.94642 | 17068 ft | 314 kts | 284° |
| 2026-05-07 00:04 | 18.83758 | -98.96874 | 17060 ft | 314 kts | 284° |
| 2026-05-07 00:04 | 18.84231 | -98.99110 | 17046 ft | 313 kts | 283° |
| 2026-05-07 00:04 | 18.84658 | -99.01382 | 17043 ft | 313 kts | 282° |
| 2026-05-07 00:05 | 18.85053 | -99.03635 | 17035 ft | 314 kts | 282° |
| 2026-05-07 00:05 | 18.85449 | -99.05917 | 17024 ft | 314 kts | 281° |
| 2026-05-07 00:05 | 18.85841 | -99.08169 | 17015 ft | 314 kts | 281° |
| 2026-05-07 00:05 | 18.86239 | -99.10453 | 17005 ft | 314 kts | 282° |
| 2026-05-07 00:06 | 18.86630 | -99.12703 | 16999 ft | 314 kts | 282° |
| 2026-05-07 00:06 | 18.87212 | -99.14903 | 16995 ft | 313 kts | 295° |
| 2026-05-07 00:06 | 18.88262 | -99.16921 | 17006 ft | 310 kts | 307° |
| 2026-05-07 00:06 | 18.89527 | -99.18761 | 17021 ft | 310 kts | 309° |
| 2026-05-07 00:07 | 18.90840 | -99.20599 | 17017 ft | 311 kts | 309° |
| 2026-05-07 00:07 | 18.92133 | -99.22424 | 17011 ft | 310 kts | 309° |
| 2026-05-07 00:07 | 18.93611 | -99.24049 | 17003 ft | 305 kts | 331° |
| 2026-05-07 00:07 | 18.95565 | -99.24804 | 17038 ft | 298 kts | 358° |
| 2026-05-07 00:08 | 18.97591 | -99.24593 | 17066 ft | 292 kts | 22° |
| 2026-05-07 00:08 | 18.99340 | -99.23516 | 17085 ft | 289 kts | 45° |
| 2026-05-07 00:08 | 19.00679 | -99.21942 | 17098 ft | 288 kts | 50° |
| 2026-05-07 00:08 | 19.01968 | -99.20355 | 17097 ft | 275 kts | 50° |
| 2026-05-07 00:09 | 19.03181 | -99.18874 | 17105 ft | 264 kts | 50° |
| 2026-05-07 00:09 | 19.04396 | -99.17394 | 16898 ft | 264 kts | 50° |
| 2026-05-07 00:09 | 19.05589 | -99.15945 | 16611 ft | 262 kts | 50° |
| 2026-05-07 00:09 | 19.06792 | -99.14489 | 16299 ft | 260 kts | 50° |
| 2026-05-07 00:10 | 19.07978 | -99.13052 | 15955 ft | 261 kts | 50° |
| 2026-05-07 00:10 | 19.09178 | -99.11597 | 15638 ft | 260 kts | 50° |
| 2026-05-07 00:10 | 19.10370 | -99.10156 | 15328 ft | 259 kts | 50° |
| 2026-05-07 00:10 | 19.11559 | -99.08718 | 15019 ft | 259 kts | 50° |
| 2026-05-07 00:11 | 19.12736 | -99.07295 | 14718 ft | 258 kts | 50° |
| 2026-05-07 00:11 | 19.13924 | -99.05857 | 14418 ft | 257 kts | 50° |
| 2026-05-07 00:11 | 19.15094 | -99.04441 | 14301 ft | 256 kts | 50° |
| 2026-05-07 00:11 | 19.16341 | -99.03090 | 14245 ft | 260 kts | 35° |
| 2026-05-07 00:12 | 19.18047 | -99.02496 | 14182 ft | 264 kts | 359° |
| 2026-05-07 00:12 | 19.19835 | -99.03062 | 14123 ft | 271 kts | 326° |
| 2026-05-07 00:12 | 19.21228 | -99.04399 | 13858 ft | 270 kts | 315° |
| 2026-05-07 00:12 | 19.22545 | -99.05808 | 13591 ft | 268 kts | 316° |
| 2026-05-07 00:13 | 19.23869 | -99.07199 | 13299 ft | 267 kts | 313° |
| 2026-05-07 00:13 | 19.25073 | -99.08691 | 13006 ft | 266 kts | 308° |
| 2026-05-07 00:13 | 19.26195 | -99.10244 | 12688 ft | 265 kts | 307° |
| 2026-05-07 00:13 | 19.27307 | -99.11803 | 12365 ft | 265 kts | 307° |
| 2026-05-07 00:14 | 19.28425 | -99.13366 | 12046 ft | 265 kts | 307° |
| 2026-05-07 00:14 | 19.29537 | -99.14913 | 11750 ft | 263 kts | 307° |
| 2026-05-07 00:14 | 19.30638 | -99.16444 | 11514 ft | 259 kts | 307° |
| 2026-05-07 00:14 | 19.31730 | -99.17947 | 11283 ft | 254 kts | 311° |
| 2026-05-07 00:15 | 19.33071 | -99.19093 | 10842 ft | 247 kts | 338° |
| 2026-05-07 00:15 | 19.34729 | -99.19428 | 10399 ft | 242 kts | 5° |
| 2026-05-07 00:15 | 19.36324 | -99.18957 | 10033 ft | 234 kts | 30° |
| 2026-05-07 00:15 | 19.37498 | -99.17898 | 9771 ft | 219 kts | 53° |
| 2026-05-07 00:16 | 19.38293 | -99.16568 | 9459 ft | 207 kts | 62° |
| 2026-05-07 00:16 | 19.38987 | -99.15279 | 9129 ft | 196 kts | 64° |
| 2026-05-07 00:16 | 19.39633 | -99.14028 | 8752 ft | 189 kts | 63° |
| 2026-05-07 00:16 | 19.40274 | -99.12871 | 8436 ft | 179 kts | 60° |
| 2026-05-07 00:17 | 19.40917 | -99.11787 | 8129 ft | 168 kts | 60° |
| 2026-05-07 00:17 | 19.41518 | -99.10712 | 7849 ft | 165 kts | 63° |
| 2026-05-07 00:17 | 19.42095 | -99.09676 | 7621 ft | 164 kts | 61° |
| 2026-05-07 00:17 | 19.42679 | -99.08642 | 7407 ft | 161 kts | 62° |
| 2026-05-07 00:18 | 19.43223 | -99.07664 | 7350 ft | 141 kts | 60° |
| 2026-05-07 00:18 | 19.43637 | -99.06927 | 7343 ft | 85 kts | 56° |
| 2026-05-07 00:18 | 19.43832 | -99.06583 | 7341 ft | 28 kts | 52° |
| 2026-05-07 00:18 | 19.43955 | -99.06531 | 7340 ft | 15 kts | 310° |
| 2026-05-07 00:19 | 19.43964 | -99.06631 | 7341 ft | 12 kts | 268° |
| 2026-05-07 00:19 | 19.43961 | -99.06716 | 7343 ft | 11 kts | 269° |
| 2026-05-07 00:19 | 19.43974 | -99.06800 | 7344 ft | 13 kts | 303° |
| 2026-05-07 00:19 | 19.44047 | -99.06855 | 7345 ft | 12 kts | 328° |
| 2026-05-07 00:20 | 19.44083 | -99.06924 | 7345 ft | 13 kts | 250° |
| 2026-05-07 00:20 | 19.44034 | -99.07013 | 7346 ft | 15 kts | 239° |
| 2026-05-07 00:20 | 19.43979 | -99.07112 | 7346 ft | 16 kts | 240° |
| 2026-05-07 00:20 | 19.43919 | -99.07222 | 7346 ft | 17 kts | 238° |
| 2026-05-07 00:21 | 19.43856 | -99.07333 | 7347 ft | 17 kts | 239° |
| 2026-05-07 00:21 | 19.43810 | -99.07414 | 7347 ft | 15 kts | 240° |
| 2026-05-07 00:21 | 19.43769 | -99.07488 | 7347 ft | 14 kts | 239° |
| 2026-05-07 00:21 | 19.43733 | -99.07571 | 7348 ft | 9 kts | 273° |
| 2026-05-07 00:22 | 19.43705 | -99.07623 | 7348 ft | 7 kts | 222° |
| 2026-05-07 00:22 | 19.43691 | -99.07666 | 7349 ft | 5 kts | 286° |
| 2026-05-07 00:22 | 19.43697 | -99.07700 | 7349 ft | 3 kts | 287° |
| 2026-05-07 00:22 | 19.43711 | -99.07720 | 7349 ft | 0 kts | 317° |